Time;durP1;ratioP1;P1;durP2;ratioP2;P2;SDS_P1;SDS_P2;PMS_P1;PMS_P2;Temp;Humidity;BMP_temperature;BMP_pressure;BME280_temperature;BME280_humidity;BME280_pressure;Samples;Min_cycle;Max_cycle;Signal;HPM_P1;HPM_P2
2022/07/09 00:00:33;;;;;;;27.17;14.65;;;14.90;99.90;;;;;;5074195;28;20046;-26
2022/07/09 00:02:59;;;;;;;28.98;15.13;;;15.00;99.90;;;;;;5074420;28;20050;-26
2022/07/09 00:05:25;;;;;;;35.58;15.98;;;15.00;99.90;;;;;;5073646;28;20091;-27
2022/07/09 00:07:51;;;;;;;37.38;17.30;;;15.00;99.90;;;;;;5074145;28;20056;-26
2022/07/09 00:10:16;;;;;;;32.15;13.25;;;15.00;99.90;;;;;;5073519;28;20086;-26
2022/07/09 00:12:42;;;;;;;24.95;14.68;;;15.00;99.90;;;;;;5073582;28;20048;-26
2022/07/09 00:15:08;;;;;;;25.67;14.63;;;15.10;99.90;;;;;;5073582;28;20055;-26
2022/07/09 00:17:34;;;;;;;23.23;12.10;;;15.10;99.90;;;;;;5074013;28;20057;-26
2022/07/09 00:20:02;;;;;;;27.77;14.73;;;15.20;99.90;;;;;;5073454;28;20044;-26
2022/07/09 00:22:28;;;;;;;32.22;13.05;;;15.20;99.90;;;;;;5072900;28;20080;-26
2022/07/09 00:24:53;;;;;;;27.52;14.18;;;15.20;99.90;;;;;;5072358;28;20097;-27
2022/07/09 00:27:19;;;;;;;27.45;13.57;;;15.20;99.90;;;;;;5074007;28;20044;-26
2022/07/09 00:29:45;;;;;;;25.05;12.65;;;15.20;99.90;;;;;;5073035;28;20122;-26
2022/07/09 00:32:11;;;;;;;33.67;14.40;;;15.30;99.90;;;;;;5038878;28;20044;-27
2022/07/09 00:34:36;;;;;;;27.42;12.32;;;15.30;99.90;;;;;;5073888;28;20382;-26
2022/07/09 00:37:02;;;;;;;31.25;14.43;;;15.30;99.90;;;;;;5073033;28;20052;-26
2022/07/09 00:39:28;;;;;;;29.05;13.68;;;15.30;99.90;;;;;;5073874;28;20044;-26
2022/07/09 00:42:07;;;;;;;31.35;13.32;;;15.30;99.90;;;;;;5073290;28;20044;-26
2022/07/09 00:44:34;;;;;;;29.40;14.50;;;15.30;99.90;;;;;;5072087;28;20105;-26
2022/07/09 00:47:00;;;;;;;31.20;14.43;;;15.30;99.90;;;;;;5073197;28;20486;-26
2022/07/09 00:49:28;;;;;;;29.40;11.85;;;15.30;99.90;;;;;;5073436;28;20131;-26
2022/07/09 00:51:55;;;;;;;34.03;13.85;;;15.40;99.90;;;;;;5073741;28;20090;-26
2022/07/09 00:54:22;;;;;;;26.48;12.65;;;15.40;99.90;;;;;;5073983;28;20061;-26
2022/07/09 00:56:48;;;;;;;33.35;13.73;;;15.50;99.90;;;;;;5073101;28;20048;-26
2022/07/09 00:59:15;;;;;;;25.50;13.15;;;15.50;99.90;;;;;;5073119;28;20128;-26
2022/07/09 01:01:41;;;;;;;23.52;11.57;;;15.60;99.90;;;;;;5076244;28;20055;-26
2022/07/09 01:04:07;;;;;;;20.77;10.85;;;15.60;99.90;;;;;;5076837;28;20056;-26
2022/07/09 01:06:36;;;;;;;33.33;13.00;;;15.60;99.90;;;;;;5075792;28;20386;-26
2022/07/09 01:09:03;;;;;;;23.23;12.07;;;15.60;99.90;;;;;;5076732;28;20043;-26
2022/07/09 01:11:29;;;;;;;26.02;12.27;;;15.60;99.90;;;;;;5076720;28;20436;-26
2022/07/09 01:13:54;;;;;;;33.20;14.23;;;15.70;99.90;;;;;;5059288;28;20056;-26
2022/07/09 01:16:20;;;;;;;28.73;13.63;;;15.60;99.90;;;;;;5076717;28;20056;-26
2022/07/09 01:18:47;;;;;;;33.63;14.43;;;15.70;99.90;;;;;;5076465;28;20062;-26
2022/07/09 01:21:16;;;;;;;24.05;11.18;;;15.70;99.90;;;;;;5075978;28;20106;-26
2022/07/09 01:23:41;;;;;;;30.38;13.00;;;15.70;99.90;;;;;;5077028;28;20453;-26
2022/07/09 01:26:08;;;;;;;26.38;13.73;;;15.70;99.90;;;;;;5075816;28;20135;-26
2022/07/09 01:28:34;;;;;;;21.17;10.55;;;15.70;99.90;;;;;;5076017;28;20494;-26
2022/07/09 01:30:59;;;;;;;34.35;14.48;;;15.80;99.90;;;;;;5076895;28;20048;-26
2022/07/09 01:33:26;;;;;;;29.45;13.43;;;15.70;99.90;;;;;;5077144;28;20052;-26
2022/07/09 01:35:51;;;;;;;34.95;13.18;;;15.70;99.90;;;;;;5076228;28;20049;-26
2022/07/09 01:38:17;;;;;;;22.33;11.45;;;15.70;99.90;;;;;;5074947;28;20075;-26
2022/07/09 01:40:43;;;;;;;30.35;12.27;;;15.70;99.90;;;;;;5076401;28;20080;-26
2022/07/09 01:43:08;;;;;;;28.80;12.82;;;15.70;99.90;;;;;;5076136;28;20048;-26
2022/07/09 01:45:34;;;;;;;24.70;12.02;;;15.70;99.90;;;;;;5075139;28;20048;-26
2022/07/09 01:48:00;;;;;;;30.50;13.23;;;15.80;99.90;;;;;;5076112;28;20054;-26
2022/07/09 01:50:25;;;;;;;28.08;11.18;;;15.80;99.90;;;;;;5075613;28;20102;-26
2022/07/09 01:52:51;;;;;;;20.38;11.20;;;15.80;99.90;;;;;;5074697;28;20044;-27
2022/07/09 01:55:17;;;;;;;20.45;10.82;;;15.80;99.90;;;;;;5075935;28;20052;-27
2022/07/09 01:57:42;;;;;;;25.02;12.15;;;15.80;99.90;;;;;;5074904;28;20088;-26
2022/07/09 02:00:08;;;;;;;24.58;10.70;;;15.80;99.90;;;;;;5074856;28;20044;-26
2022/07/09 02:02:34;;;;;;;25.48;11.15;;;15.80;99.90;;;;;;5076280;28;20044;-26
2022/07/09 02:05:00;;;;;;;21.17;8.60;;;15.70;99.90;;;;;;5075752;28;20044;-26
2022/07/09 02:07:26;;;;;;;23.17;9.45;;;15.70;99.90;;;;;;5076246;28;20047;-26
2022/07/09 02:09:51;;;;;;;27.13;9.93;;;15.70;99.90;;;;;;5074461;28;20041;-26
2022/07/09 02:12:17;;;;;;;22.98;9.52;;;15.70;99.90;;;;;;5075258;28;20048;-26
2022/07/09 02:14:43;;;;;;;17.35;9.23;;;15.70;99.90;;;;;;5075588;28;20108;-26
2022/07/09 02:17:09;;;;;;;22.88;10.23;;;15.70;99.90;;;;;;5075161;28;20061;-26
2022/07/09 02:19:34;;;;;;;17.23;7.82;;;15.70;99.90;;;;;;5075957;28;20044;-26
2022/07/09 02:22:00;;;;;;;19.88;8.07;;;15.70;99.90;;;;;;5075454;28;20079;-26
2022/07/09 02:24:26;;;;;;;22.42;9.38;;;15.80;99.90;;;;;;5075362;28;20555;-26
2022/07/09 02:26:51;;;;;;;19.00;7.75;;;15.80;99.90;;;;;;5075554;28;20509;-26
2022/07/09 02:29:17;;;;;;;21.88;7.80;;;15.80;99.90;;;;;;5075155;28;20393;-26
2022/07/09 02:31:43;;;;;;;22.40;9.38;;;15.70;99.90;;;;;;5074496;28;20051;-26
2022/07/09 02:34:08;;;;;;;18.08;8.55;;;15.70;99.90;;;;;;5075134;28;20048;-26
2022/07/09 02:36:34;;;;;;;14.93;7.10;;;15.70;99.90;;;;;;5075077;28;20048;-26
2022/07/09 02:39:00;;;;;;;16.92;8.32;;;15.60;99.90;;;;;;5075875;28;20045;-26
2022/07/09 02:41:25;;;;;;;16.92;8.18;;;15.60;99.90;;;;;;5075568;28;20497;-26
2022/07/09 02:43:52;;;;;;;21.92;8.05;;;15.70;99.90;;;;;;5075812;28;20041;-26
2022/07/09 02:46:17;;;;;;;17.90;7.72;;;15.60;99.90;;;;;;5074851;28;20490;-26
2022/07/09 02:48:43;;;;;;;17.58;7.07;;;15.60;99.90;;;;;;5073579;28;20036;-26
2022/07/09 02:51:09;;;;;;;17.48;7.95;;;15.60;99.90;;;;;;5074820;28;20052;-26
2022/07/09 02:53:34;;;;;;;18.52;8.40;;;15.50;99.90;;;;;;5074773;28;20127;-26
2022/07/09 02:56:00;;;;;;;21.55;8.02;;;15.50;99.90;;;;;;5073533;28;20045;-26
2022/07/09 02:58:26;;;;;;;14.80;6.95;;;15.40;99.90;;;;;;5074698;28;20124;-26
2022/07/09 03:00:52;;;;;;;21.23;8.52;;;15.30;99.90;;;;;;5074604;28;20478;-26
2022/07/09 03:03:18;;;;;;;17.20;7.53;;;15.20;99.90;;;;;;5074559;28;20478;-26
2022/07/09 03:05:43;;;;;;;18.67;8.20;;;15.10;99.90;;;;;;5075110;28;20135;-26
2022/07/09 03:08:09;;;;;;;20.38;8.30;;;15.00;99.90;;;;;;5073299;28;20121;-27
2022/07/09 03:10:35;;;;;;;24.77;9.38;;;15.00;99.90;;;;;;5073118;28;20095;-26
2022/07/09 03:13:01;;;;;;;17.20;9.00;;;15.00;99.90;;;;;;5074931;28;20055;-26
2022/07/09 03:15:27;;;;;;;19.35;8.60;;;15.00;99.90;;;;;;5075171;28;20056;-26
2022/07/09 03:17:52;;;;;;;31.58;10.63;;;15.00;99.90;;;;;;5074136;28;20406;-26
2022/07/09 03:20:18;;;;;;;17.98;8.38;;;15.00;99.90;;;;;;5074150;28;20059;-26
2022/07/09 03:22:44;;;;;;;14.90;7.20;;;14.90;99.90;;;;;;5073543;28;20044;-26
2022/07/09 03:25:10;;;;;;;21.83;9.57;;;14.90;99.90;;;;;;5074164;28;20048;-26
2022/07/09 03:27:36;;;;;;;25.90;9.32;;;14.90;99.90;;;;;;5074149;28;20049;-26
2022/07/09 03:30:03;;;;;;;19.92;9.85;;;14.80;99.90;;;;;;5074076;28;20505;-26
2022/07/09 03:32:29;;;;;;;19.85;8.32;;;14.80;99.90;;;;;;5074099;28;20041;-26
2022/07/09 03:34:55;;;;;;;25.55;9.60;;;14.70;99.90;;;;;;5073976;28;20390;-26
2022/07/09 03:37:21;;;;;;;17.15;8.88;;;14.70;99.90;;;;;;5074023;28;20119;-27
2022/07/09 03:39:47;;;;;;;21.30;9.05;;;14.70;99.90;;;;;;5073650;28;20422;-26
2022/07/09 03:42:13;;;;;;;20.90;9.43;;;14.70;99.90;;;;;;5074453;28;20044;-26
2022/07/09 03:44:39;;;;;;;22.88;9.65;;;14.80;99.90;;;;;;5073888;28;20145;-26
2022/07/09 03:47:06;;;;;;;25.42;9.45;;;14.80;99.90;;;;;;5073861;28;20080;-26
2022/07/09 03:49:32;;;;;;;20.65;9.90;;;14.90;99.90;;;;;;5074566;28;20129;-26
2022/07/09 03:51:58;;;;;;;21.70;10.23;;;14.90;99.90;;;;;;5074587;28;20052;-27
2022/07/09 03:54:24;;;;;;;27.50;10.52;;;14.90;99.90;;;;;;5073796;28;20403;-26
2022/07/09 03:56:50;;;;;;;19.48;8.82;;;15.00;99.90;;;;;;5073173;28;20055;-26
2022/07/09 03:59:16;;;;;;;22.15;9.85;;;15.00;99.90;;;;;;5073753;28;20544;-26
2022/07/09 04:01:43;;;;;;;25.65;9.40;;;15.10;99.90;;;;;;5073039;28;20432;-25
2022/07/09 04:04:08;;;;;;;19.42;8.40;;;15.10;99.90;;;;;;5074245;28;20044;-27
2022/07/09 04:06:34;;;;;;;24.63;9.90;;;15.20;99.90;;;;;;5074468;28;20142;-26
2022/07/09 04:09:04;;;;;;;14.43;7.68;;;15.20;99.90;;;;;;5072541;28;20516;-26
2022/07/09 04:11:33;;;;;;;16.60;8.18;;;15.20;99.90;;;;;;5074411;28;20040;-26
2022/07/09 04:14:02;;;;;;;20.60;8.73;;;15.20;99.90;;;;;;5073591;28;20048;-26
2022/07/09 04:16:28;;;;;;;18.50;8.60;;;15.30;99.90;;;;;;5073393;28;20056;-26
2022/07/09 04:18:54;;;;;;;13.48;6.63;;;15.30;99.90;;;;;;5073531;28;20093;-27
2022/07/09 04:21:23;;;;;;;25.33;8.70;;;15.40;99.90;;;;;;5073741;28;20447;-26
2022/07/09 04:23:49;;;;;;;18.42;8.60;;;15.40;99.90;;;;;;5073458;28;20044;-26
2022/07/09 04:26:16;;;;;;;22.13;8.43;;;15.40;99.90;;;;;;5072191;28;20052;-26
2022/07/09 04:28:42;;;;;;;17.77;8.48;;;15.40;99.90;;;;;;5073347;28;20041;-26
2022/07/09 04:31:08;;;;;;;16.75;8.40;;;15.40;99.90;;;;;;5073421;28;20052;-26
2022/07/09 04:33:34;;;;;;;16.52;7.65;;;15.40;99.90;;;;;;5073065;28;20048;-26
2022/07/09 04:35:59;;;;;;;20.25;7.95;;;15.50;99.90;;;;;;5077404;28;20093;-26
2022/07/09 04:38:25;;;;;;;19.92;7.88;;;15.50;99.90;;;;;;5076245;28;20152;-26
2022/07/09 04:40:51;;;;;;;13.20;7.72;;;15.50;99.90;;;;;;5077326;28;20083;-26
2022/07/09 04:43:17;;;;;;;21.40;9.00;;;15.60;99.90;;;;;;5077343;28;20139;-26
2022/07/09 04:45:43;;;;;;;17.15;7.60;;;15.60;99.90;;;;;;5077482;28;20543;-26
2022/07/09 04:48:08;;;;;;;19.38;8.18;;;15.70;99.90;;;;;;5077984;28;20454;-26
2022/07/09 04:50:34;;;;;;;12.70;6.50;;;15.80;99.90;;;;;;5076657;28;20036;-26
2022/07/09 04:53:00;;;;;;;14.20;7.55;;;15.80;99.90;;;;;;5076935;28;20051;-26
2022/07/09 04:55:26;;;;;;;14.48;7.55;;;15.80;99.90;;;;;;5076078;28;20041;-26
2022/07/09 04:57:51;;;;;;;21.85;7.80;;;15.90;99.90;;;;;;5075800;28;20044;-26
2022/07/09 05:00:17;;;;;;;13.55;6.65;;;15.90;99.90;;;;;;5077232;28;20051;-26
2022/07/09 05:02:44;;;;;;;14.60;7.18;;;16.00;99.90;;;;;;5075956;28;20425;-26
2022/07/09 05:05:10;;;;;;;15.80;7.10;;;16.10;99.90;;;;;;5076833;28;20052;-26
2022/07/09 05:07:39;;;;;;;13.55;6.88;;;16.10;99.90;;;;;;5077302;28;20056;-26
2022/07/09 05:10:05;;;;;;;13.35;6.60;;;16.10;99.90;;;;;;5076678;28;20087;-26
2022/07/09 05:12:31;;;;;;;14.07;6.90;;;16.10;99.90;;;;;;5075518;28;20054;-26
2022/07/09 05:14:57;;;;;;;15.38;6.85;;;16.20;99.90;;;;;;5077484;28;20044;-27
2022/07/09 05:17:23;;;;;;;10.70;5.38;;;16.20;99.90;;;;;;5075028;28;20410;-26
2022/07/09 05:19:50;;;;;;;13.40;6.28;;;16.30;99.90;;;;;;5076494;28;20079;-26
2022/07/09 05:22:16;;;;;;;13.80;7.55;;;16.30;99.90;;;;;;5076539;28;20080;-26
2022/07/09 05:24:42;;;;;;;15.40;7.38;;;16.40;99.90;;;;;;5076164;28;20437;-26
2022/07/09 05:27:09;;;;;;;9.75;5.53;;;16.40;99.90;;;;;;5075509;28;20412;-26
2022/07/09 05:29:36;;;;;;;14.80;5.72;;;16.50;99.90;;;;;;5076292;28;20044;-26
2022/07/09 05:32:03;;;;;;;11.95;6.47;;;16.50;99.90;;;;;;5075793;28;20045;-26
2022/07/09 05:34:28;;;;;;;13.20;6.97;;;16.50;99.90;;;;;;5076300;28;20123;-26
2022/07/09 05:36:58;;;;;;;14.15;6.63;;;16.60;99.90;;;;;;5058619;28;20090;-26
2022/07/09 05:39:24;;;;;;;11.85;6.55;;;16.60;99.90;;;;;;5074772;28;20482;-26
2022/07/09 05:41:50;;;;;;;13.60;6.45;;;16.60;94.70;;;;;;5076394;28;20393;-26
2022/07/09 05:44:15;;;;;;;11.55;5.93;;;16.60;56.50;;;;;;5076677;28;20123;-26
2022/07/09 05:46:41;;;;;;;11.23;6.05;;;16.70;32.70;;;;;;5075328;28;20136;-26
2022/07/09 05:49:07;;;;;;;14.20;5.82;;;16.70;23.70;;;;;;5074863;28;20047;-26
2022/07/09 05:51:33;;;;;;;14.88;5.82;;;16.70;13.50;;;;;;5075988;28;20045;-28
2022/07/09 05:53:59;;;;;;;11.55;5.32;;;16.70;1.00;;;;;;5075007;28;20097;-26
2022/07/09 05:56:25;;;;;;;13.23;6.05;;;16.80;1.00;;;;;;5075995;28;20123;-26
2022/07/09 05:58:52;;;;;;;10.55;4.57;;;16.80;1.00;;;;;;5058211;28;20052;-26
2022/07/09 06:01:18;;;;;;;5.22;3.67;;;16.90;1.00;;;;;;5075848;28;20056;-26
2022/07/09 06:03:43;;;;;;;10.68;4.30;;;16.90;1.00;;;;;;5076070;28;20178;-26
2022/07/09 06:06:10;;;;;;;9.20;4.57;;;17.00;1.00;;;;;;5075763;28;20084;-26
2022/07/09 06:08:36;;;;;;;9.43;3.80;;;17.00;1.00;;;;;;5074453;28;20056;-26
2022/07/09 06:11:02;;;;;;;7.10;4.13;;;17.00;1.00;;;;;;5075239;28;20044;-26
2022/07/09 06:13:28;;;;;;;10.38;4.53;;;17.10;1.00;;;;;;5075606;28;20413;-26
2022/07/09 06:15:54;;;;;;;21.95;5.47;;;17.10;1.00;;;;;;5075438;28;20037;-26
2022/07/09 06:18:21;;;;;;;10.57;4.60;;;17.10;1.00;;;;;;5076657;28;20110;-26
2022/07/09 06:20:47;;;;;;;9.95;3.92;;;17.10;1.00;;;;;;5074522;28;20052;-26
2022/07/09 06:23:13;;;;;;;8.25;4.10;;;17.20;1.00;;;;;;5074230;28;20048;-26
2022/07/09 06:25:40;;;;;;;10.73;3.97;;;17.20;99.90;;;;;;5075361;28;20097;-27
2022/07/09 06:28:06;;;;;;;12.77;4.28;;;17.20;99.90;;;;;;5074638;28;20048;-26
2022/07/09 06:30:33;;;;;;;10.77;3.80;;;17.30;99.90;;;;;;5075178;28;20041;-26
2022/07/09 06:33:00;;;;;;;10.68;3.47;;;17.40;99.90;;;;;;5074069;28;20049;-26
2022/07/09 06:35:26;;;;;;;12.68;4.25;;;17.40;99.90;;;;;;5075445;28;20049;-27
2022/07/09 06:37:52;;;;;;;7.70;3.10;;;17.50;99.90;;;;;;5075122;28;20098;-26
2022/07/09 06:40:18;;;;;;;9.75;4.03;;;17.60;99.90;;;;;;5075039;28;20048;-26
2022/07/09 06:42:43;;;;;;;9.07;3.58;;;17.60;99.90;;;;;;5074988;28;20117;-26
2022/07/09 06:45:10;;;;;;;7.55;2.45;;;17.60;99.90;;;;;;5075252;28;20078;-26
2022/07/09 06:47:36;;;;;;;7.93;2.80;;;17.70;99.90;;;;;;5074918;28;20052;-26
2022/07/09 06:50:02;;;;;;;10.77;3.28;;;17.70;1.10;;;;;;5075418;28;20083;-26
2022/07/09 06:52:28;;;;;;;13.88;3.15;;;17.70;1.00;;;;;;5073541;28;20059;-26
2022/07/09 06:54:54;;;;;;;10.82;2.47;;;17.70;1.00;;;;;;5074747;28;20048;-26
2022/07/09 06:57:19;;;;;;;8.45;2.35;;;17.80;1.00;;;;;;5074535;28;20045;-26
2022/07/09 06:59:46;;;;;;;5.47;1.95;;;17.80;99.90;;;;;;5074437;28;20044;-27
2022/07/09 07:02:12;;;;;;;5.97;2.05;;;17.90;99.90;;;;;;5074608;28;20067;-27
2022/07/09 07:04:38;;;;;;;10.55;3.33;;;17.90;99.90;;;;;;5074617;28;20052;-26
2022/07/09 07:07:04;;;;;;;7.60;2.17;;;18.00;99.90;;;;;;5074510;28;20056;-26
2022/07/09 07:09:30;;;;;;;11.55;3.42;;;18.00;52.60;;;;;;5074402;28;20047;-26
2022/07/09 07:11:56;;;;;;;9.65;2.30;;;18.10;99.90;;;;;;5074417;28;20056;-27
2022/07/09 07:14:22;;;;;;;9.55;2.67;;;18.30;36.40;;;;;;5074052;28;20402;-26
2022/07/09 07:16:48;;;;;;;8.15;1.90;;;18.50;1.00;;;;;;5073358;28;20053;-26
2022/07/09 07:19:14;;;;;;;10.50;2.22;;;18.50;99.90;;;;;;5056652;28;20406;-26
2022/07/09 07:21:40;;;;;;;11.57;1.63;;;18.50;99.90;;;;;;5074804;28;20067;-26
2022/07/09 07:24:07;;;;;;;10.82;2.63;;;18.50;99.90;;;;;;5074197;28;20080;-26
2022/07/09 07:26:34;;;;;;;7.50;1.63;;;18.50;99.90;;;;;;5074714;28;20048;-28
2022/07/09 07:29:00;;;;;;;7.25;1.70;;;18.50;99.90;;;;;;5074059;28;20049;-26
2022/07/09 07:31:26;;;;;;;8.68;1.63;;;18.50;99.90;;;;;;5074633;28;20040;-26
2022/07/09 07:33:52;;;;;;;8.45;1.25;;;18.50;99.90;;;;;;5074069;28;20051;-27
2022/07/09 07:36:18;;;;;;;7.28;2.05;;;18.70;99.90;;;;;;5074838;28;20044;-27
2022/07/09 07:38:45;;;;;;;7.82;1.60;;;19.30;12.00;;;;;;5073987;28;20489;-27
2022/07/09 07:41:11;;;;;;;6.15;1.60;;;19.50;1.00;;;;;;5073826;28;20055;-26
2022/07/09 07:43:38;;;;;;;11.18;1.88;;;19.50;99.90;;;;;;5074497;28;20515;-26
2022/07/09 07:46:03;;;;;;;8.65;1.90;;;19.10;99.90;;;;;;5073983;28;20048;-26
2022/07/09 07:48:30;;;;;;;12.45;2.67;;;18.80;99.90;;;;;;5072863;28;20037;-26
2022/07/09 07:50:56;;;;;;;12.52;2.45;;;18.80;99.90;;;;;;5074362;28;20492;-26
2022/07/09 07:53:22;;;;;;;8.80;2.10;;;18.90;99.90;;;;;;5074325;28;20045;-26
2022/07/09 07:55:49;;;;;;;5.78;1.42;;;19.00;1.00;;;;;;5074311;28;20510;-26
2022/07/09 07:58:15;;;;;;;9.02;1.98;;;19.10;99.90;;;;;;5073705;28;20486;-27
2022/07/09 08:00:41;;;;;;;5.53;1.58;;;19.10;99.90;;;;;;5073736;28;20044;-26
2022/07/09 08:03:06;;;;;;;8.05;1.70;;;19.40;99.90;;;;;;5073490;28;20055;-26
2022/07/09 08:05:32;;;;;;;8.32;1.60;;;19.30;99.90;;;;;;5074205;28;20045;-28
2022/07/09 08:07:58;;;;;;;10.45;2.67;;;19.20;99.90;;;;;;5073285;28;20465;-27
2022/07/09 08:10:25;;;;;;;7.93;1.92;;;19.10;99.90;;;;;;5073464;28;20048;-28
2022/07/09 08:12:51;;;;;;;5.80;1.20;;;19.30;99.90;;;;;;5074169;28;20051;-26
2022/07/09 08:15:17;;;;;;;8.15;2.38;;;19.10;99.90;;;;;;5074145;28;20048;-26
2022/07/09 08:17:43;;;;;;;7.15;1.58;;;18.90;99.90;;;;;;5072046;28;20056;-27
2022/07/09 08:20:09;;;;;;;11.10;1.98;;;18.80;99.90;;;;;;5072492;28;20131;-27
2022/07/09 08:22:35;;;;;;;8.07;1.60;;;18.90;99.90;;;;;;5073389;28;20048;-26
2022/07/09 08:25:02;;;;;;;8.52;1.55;;;19.00;99.90;;;;;;5073537;28;20044;-26
2022/07/09 08:27:28;;;;;;;6.00;1.48;;;19.00;79.90;;;;;;5074054;28;20053;-27
2022/07/09 08:29:53;;;;;;;9.70;2.05;;;19.60;76.80;;;;;;5073087;28;20450;-26
2022/07/09 08:32:19;;;;;;;10.35;1.70;;;20.40;1.00;;;;;;5071938;28;20071;-26
2022/07/09 08:34:45;;;;;;;9.25;1.70;;;20.40;99.90;;;;;;5073434;28;20048;-27
2022/07/09 08:37:11;;;;;;;9.70;1.90;;;19.90;99.90;;;;;;5073908;28;20059;-26
2022/07/09 08:39:36;;;;;;;5.72;1.50;;;20.30;1.00;;;;;;5073350;28;20059;-26
2022/07/09 08:42:07;;;;;;;8.73;1.58;;;20.90;99.90;;;;;;5073340;28;20095;-26
2022/07/09 08:44:36;;;;;;;9.70;1.70;;;20.70;96.10;;;;;;5073364;28;20041;-26
2022/07/09 08:47:02;;;;;;;4.95;1.27;;;20.20;99.90;;;;;;5073272;28;20488;-27
2022/07/09 08:49:28;;;;;;;6.18;1.42;;;19.80;99.90;;;;;;5072058;28;20045;-26
2022/07/09 08:51:56;;;;;;;6.40;1.38;;;19.90;1.00;;;;;;5073204;28;20046;-26
2022/07/09 08:54:23;;;;;;;5.30;1.45;;;20.40;99.90;;;;;;5073229;28;20451;-26
2022/07/09 08:56:51;;;;;;;6.40;1.60;;;20.30;99.90;;;;;;5073163;28;20045;-26
2022/07/09 08:59:17;;;;;;;8.80;1.73;;;20.60;99.90;;;;;;5073151;28;20045;-26
2022/07/09 09:01:42;;;;;;;10.05;1.92;;;21.30;99.90;;;;;;5072785;28;20052;-26
2022/07/09 09:04:08;;;;;;;8.10;1.70;;;20.80;94.00;;;;;;5073929;28;20119;-26
2022/07/09 09:06:39;;;;;;;7.22;1.80;;;20.20;99.90;;;;;;5073078;28;20041;-26
2022/07/09 09:09:08;;;;;;;9.35;1.80;;;19.70;99.90;;;;;;5072243;28;20048;-26
2022/07/09 09:11:36;;;;;;;6.47;1.50;;;19.60;99.90;;;;;;5073055;28;20051;-27
2022/07/09 09:14:03;;;;;;;9.75;1.75;;;19.80;99.90;;;;;;5073014;28;20045;-27
2022/07/09 09:16:29;;;;;;;8.18;1.73;;;20.10;99.90;;;;;;5073333;28;20044;-27
2022/07/09 09:18:59;;;;;;;7.72;1.52;;;19.90;99.90;;;;;;5073357;28;20044;-26
2022/07/09 09:21:27;;;;;;;10.20;2.03;;;19.90;99.90;;;;;;5074110;28;20045;-26
2022/07/09 09:23:55;;;;;;;7.20;1.45;;;19.70;99.90;;;;;;5076518;28;20040;-26
2022/07/09 09:26:27;;;;;;;9.55;2.50;;;19.60;1.00;;;;;;5075507;28;20538;-26
2022/07/09 09:29:01;;;;;;;4.72;1.20;;;19.50;99.90;;;;;;5075827;28;20040;-26
2022/07/09 09:31:37;;;;;;;8.43;1.80;;;19.20;99.90;;;;;;5076378;28;20045;-26
2022/07/09 09:34:08;;;;;;;5.88;1.30;;;19.30;99.90;;;;;;5076891;28;20135;-27
2022/07/09 09:36:45;;;;;;;9.20;1.80;;;19.70;99.90;;;;;;5075101;28;20045;-26
2022/07/09 09:39:25;;;;;;;6.78;1.83;;;20.10;1.00;;;;;;5076323;28;20554;-27
2022/07/09 09:41:56;;;;;;;7.35;1.50;;;20.20;1.00;;;;;;5076759;28;20040;-26
2022/07/09 09:44:29;;;;;;;5.50;1.17;;;20.30;1.00;;;;;;5076516;28;20044;-27
2022/07/09 09:46:56;;;;;;;10.65;1.80;;;20.50;1.00;;;;;;5076809;28;20059;-26
2022/07/09 09:49:22;;;;;;;5.05;1.27;;;20.50;1.00;;;;;;5075983;28;20048;-27
2022/07/09 09:52:02;;;;;;;4.18;1.00;;;20.60;99.90;;;;;;5076085;28;20052;-26
2022/07/09 09:54:28;;;;;;;5.53;1.60;;;20.30;5.40;;;;;;5074873;28;20088;-26
2022/07/09 09:56:54;;;;;;;8.63;1.92;;;20.00;99.90;;;;;;5076200;28;20083;-27
2022/07/09 09:59:20;;;;;;;7.25;2.42;;;20.40;99.90;;;;;;5074698;28;20529;-26
2022/07/09 10:01:46;;;;;;;7.28;1.80;;;20.90;99.90;;;;;;5075718;28;20076;-26
2022/07/09 10:04:14;;;;;;;5.50;1.80;;;20.70;1.00;;;;;;5075851;28;20478;-27
2022/07/09 10:06:41;;;;;;;9.88;2.05;;;20.10;54.10;;;;;;5075760;28;20044;-26
2022/07/09 10:09:08;;;;;;;8.00;1.77;;;19.60;99.90;;;;;;5075653;28;20482;-26
2022/07/09 10:11:48;;;;;;;8.57;1.67;;;19.30;1.00;;;;;;5075811;28;20058;-26
2022/07/09 10:14:36;;;;;;;9.43;1.60;;;19.00;89.70;;;;;;5074678;28;20084;-26
2022/07/09 10:17:15;;;;;;;8.05;2.15;;;19.00;99.90;;;;;;5075469;28;20084;-26
2022/07/09 10:20:11;;;;;;;11.43;1.92;;;19.20;99.90;;;;;;5075442;28;20090;-26
2022/07/09 10:22:39;;;;;;;9.93;1.85;;;19.30;67.70;;;;;;5065975;28;20060;-26
2022/07/09 10:25:06;;;;;;;8.30;2.00;;;19.20;99.90;;;;;;5075424;28;20048;-26
2022/07/09 10:27:46;;;;;;;9.10;1.77;;;19.10;1.00;;;;;;5074181;28;20052;-26
2022/07/09 10:30:29;;;;;;;8.40;1.35;;;19.60;1.00;;;;;;5075279;28;20040;-26
2022/07/09 10:33:06;;;;;;;9.63;1.88;;;20.00;99.90;;;;;;5074667;28;20497;-27
2022/07/09 10:35:51;;;;;;;10.27;1.80;;;20.20;99.90;;;;;;5074824;28;20087;-26
2022/07/09 10:38:22;;;;;;;9.55;1.83;;;20.10;1.00;;;;;;5075195;28;20056;-26
2022/07/09 10:40:59;;;;;;;6.18;1.35;;;20.00;99.90;;;;;;5074451;28;20410;-27
2022/07/09 10:43:44;;;;;;;5.50;1.25;;;20.20;1.00;;;;;;5074925;28;20513;-26
2022/07/09 10:46:11;;;;;;;5.40;1.30;;;20.90;1.00;;;;;;5075645;28;20044;-26
2022/07/09 10:48:39;;;;;;;6.10;1.50;;;21.60;1.00;;;;;;5075101;28;20095;-26
2022/07/09 10:51:05;;;;;;;5.43;1.10;;;21.90;99.90;;;;;;5074833;28;20067;-27
2022/07/09 10:53:31;;;;;;;8.80;1.02;;;22.10;82.30;;;;;;5075371;28;20470;-26
2022/07/09 10:55:58;;;;;;;6.32;1.17;;;22.00;1.00;;;;;;5073833;28;20044;-26
2022/07/09 10:58:25;;;;;;;6.93;1.48;;;21.90;1.00;;;;;;5074764;28;20119;-27
2022/07/09 11:00:58;;;;;;;5.03;1.10;;;21.90;1.00;;;;;;5074004;28;20048;-27
2022/07/09 11:03:29;;;;;;;8.48;1.35;;;21.70;65.80;;;;;;5075182;28;20186;-27
2022/07/09 11:05:55;;;;;;;4.70;1.02;;;21.80;99.90;;;;;;5074336;28;20576;-27
2022/07/09 11:08:21;;;;;;;7.70;1.48;;;21.90;99.90;;;;;;5074523;28;20482;-26
2022/07/09 11:10:50;;;;;;;6.32;0.98;;;22.00;99.90;;;;;;5074682;28;20067;-27
2022/07/09 11:13:15;;;;;;;7.75;0.95;;;22.10;99.90;;;;;;5074436;28;20131;-26
2022/07/09 11:15:41;;;;;;;6.80;2.33;;;22.30;1.00;;;;;;5074682;28;20086;-27
2022/07/09 11:18:12;;;;;;;7.65;2.10;;;22.50;99.90;;;;;;5074614;28;20558;-27
2022/07/09 11:20:44;;;;;;;9.10;1.55;;;22.30;99.90;;;;;;5074224;28;20132;-26
2022/07/09 11:23:11;;;;;;;7.95;1.10;;;22.60;99.90;;;;;;5075147;28;20106;-26
2022/07/09 11:25:37;;;;;;;5.45;1.15;;;22.70;99.90;;;;;;5074227;28;20084;-27
2022/07/09 11:28:04;;;;;;;7.68;1.27;;;22.60;99.90;;;;;;5073559;28;20083;-27
2022/07/09 11:30:32;;;;;;;5.43;1.00;;;22.10;99.90;;;;;;5074917;28;20094;-26
2022/07/09 11:32:58;;;;;;;7.60;1.20;;;22.50;59.90;;;;;;5073821;28;20609;-27
2022/07/09 11:35:32;;;;;;;5.03;0.93;;;22.80;99.90;;;;;;5074330;28;20040;-27
2022/07/09 11:38:01;;;;;;;3.83;1.08;;;23.20;1.00;;;;;;5073352;28;20135;-27
2022/07/09 11:40:27;;;;;;;4.72;1.15;;;23.40;1.00;;;;;;5073936;28;20040;-26
2022/07/09 11:42:53;;;;;;;7.55;1.35;;;22.90;1.00;;;;;;5073884;28;20041;-26
2022/07/09 11:45:24;;;;;;;5.25;1.17;;;22.40;99.90;;;;;;5073296;28;20044;-26
2022/07/09 11:48:01;;;;;;;5.40;1.00;;;23.00;99.90;;;;;;5074216;28;20102;-27
2022/07/09 11:50:27;;;;;;;5.50;1.40;;;23.50;1.00;;;;;;5074112;28;20367;-27
2022/07/09 11:52:53;;;;;;;4.10;0.70;;;23.80;1.00;;;;;;5073890;28;20406;-27
2022/07/09 11:55:21;;;;;;;6.47;1.05;;;23.70;99.90;;;;;;5074613;28;20048;-27
2022/07/09 11:57:58;;;;;;;5.57;1.45;;;23.40;99.90;;;;;;5073630;28;20375;-27
2022/07/09 12:00:29;;;;;;;5.32;0.95;;;23.50;99.90;;;;;;5074527;28;20048;-27
2022/07/09 12:02:59;;;;;;;4.97;0.70;;;23.00;99.90;;;;;;5072136;28;20040;-27
2022/07/09 12:05:30;;;;;;;3.78;0.82;;;22.90;1.00;;;;;;5074510;28;20048;-27
2022/07/09 12:07:59;;;;;;;5.78;1.20;;;23.00;99.90;;;;;;5073720;28;20135;-27
2022/07/09 12:10:32;;;;;;;8.18;0.70;;;23.00;1.00;;;;;;5073440;28;20051;-26
2022/07/09 12:12:59;;;;;;;4.38;0.68;;;23.10;99.90;;;;;;5074342;28;20441;-27
2022/07/09 12:15:29;;;;;;;4.53;0.90;;;23.20;99.90;;;;;;5072811;28;20127;-27
2022/07/09 12:18:00;;;;;;;5.53;1.30;;;23.60;99.90;;;;;;5071890;28;20409;-26
2022/07/09 12:20:31;;;;;;;5.18;0.93;;;23.20;99.90;;;;;;5073507;28;20047;-27
2022/07/09 12:22:58;;;;;;;4.35;0.82;;;22.80;99.90;;;;;;5073499;28;20048;-26
2022/07/09 12:25:27;;;;;;;5.20;1.02;;;23.00;99.90;;;;;;5072476;28;20079;-27
2022/07/09 12:27:52;;;;;;;4.60;0.90;;;23.10;99.90;;;;;;5073073;28;20067;-26
2022/07/09 12:30:19;;;;;;;7.35;1.70;;;23.30;99.90;;;;;;5073346;28;20045;-26
2022/07/09 12:32:46;;;;;;;5.53;0.95;;;23.30;99.90;;;;;;5072661;28;20135;-26
2022/07/09 12:35:12;;;;;;;7.28;1.25;;;23.30;99.90;;;;;;5073395;28;20045;-27
2022/07/09 12:37:38;;;;;;;7.22;1.23;;;22.90;99.90;;;;;;5071879;28;20510;-27
2022/07/09 12:40:06;;;;;;;6.60;0.80;;;22.90;99.90;;;;;;5073292;28;20478;-26